Time;durP1;ratioP1;P1;durP2;ratioP2;P2;SDS_P1;SDS_P2;PMS_P1;PMS_P2;Temp;Humidity;BMP_temperature;BMP_pressure;BME280_temperature;BME280_humidity;BME280_pressure;Samples;Min_cycle;Max_cycle;Signal;HPM_P1;HPM_P2
2021/04/24 00:04:49;;;;;;;11.40;3.80;;;;;;;6.09;57.42;101077.97;20990553;28;20040;-68
2021/04/24 00:14:49;;;;;;;10.73;3.60;;;;;;;5.82;57.52;101073.41;20934187;28;20044;-69
2021/04/24 00:24:50;;;;;;;11.57;3.80;;;;;;;5.63;58.07;101067.78;20906758;28;20063;-69
2021/04/24 00:34:51;;;;;;;9.27;4.00;;;;;;;5.54;58.51;101067.97;20906032;28;20045;-69
2021/04/24 00:44:54;;;;;;;12.52;4.15;;;;;;;5.42;57.41;101057.88;20956053;28;20056;-68
2021/04/24 00:54:55;;;;;;;12.77;4.43;;;;;;;5.42;57.02;101048.38;20992309;28;20052;-69
2021/04/24 01:04:56;;;;;;;12.90;4.65;;;;;;;5.51;56.64;101037.75;20981687;28;20075;-69
2021/04/24 01:14:58;;;;;;;12.10;4.32;;;;;;;5.63;56.19;101028.84;20924262;28;20079;-70
2021/04/24 01:24:59;;;;;;;12.25;4.30;;;;;;;5.51;57.50;101031.72;20903465;28;20048;-69
2021/04/24 01:35:00;;;;;;;12.43;4.20;;;;;;;5.29;58.11;101033.06;20919949;28;20102;-68
2021/04/24 01:45:03;;;;;;;11.10;4.60;;;;;;;5.42;58.46;101029.34;20974227;28;20048;-69
2021/04/24 01:55:07;;;;;;;14.70;4.70;;;;;;;5.69;58.02;101020.88;20984469;28;20460;-69
2021/04/24 02:05:11;;;;;;;16.55;4.60;;;;;;;5.69;58.75;101023.47;20971212;28;20049;-69
2021/04/24 02:15:12;;;;;;;12.13;4.72;;;;;;;5.37;60.21;101016.47;20973378;28;20098;-69
2021/04/24 02:25:16;;;;;;;14.23;4.40;;;;;;;5.07;61.61;101020.59;20939279;28;20045;-69
2021/04/24 02:35:27;;;;;;;14.70;4.80;;;;;;;5.16;62.21;100999.63;20919772;28;20044;-68
2021/04/24 02:45:28;;;;;;;14.15;4.72;;;;;;;5.30;62.21;101001.91;20961643;28;20090;-69
2021/04/24 02:55:30;;;;;;;14.98;5.32;;;;;;;5.29;63.05;101005.38;20993066;28;20041;-70
2021/04/24 03:05:33;;;;;;;11.90;5.28;;;;;;;5.34;63.90;100998.34;20982953;28;20055;-70
2021/04/24 03:15:34;;;;;;;13.68;4.60;;;;;;;5.25;64.76;101003.75;20916652;28;20052;-69
2021/04/24 03:25:37;;;;;;;12.90;4.93;;;;;;;5.14;65.67;101006.59;20911501;28;20049;-69
2021/04/24 03:35:39;;;;;;;11.27;5.45;;;;;;;5.04;66.00;101005.09;20910651;28;20107;-69
2021/04/24 03:45:40;;;;;;;13.75;5.72;;;;;;;4.86;67.51;101020.19;20926291;28;20045;-69
2021/04/24 03:55:41;;;;;;;13.63;5.53;;;;;;;4.81;68.59;101022.91;20909434;28;20057;-68
2021/04/24 04:05:44;;;;;;;13.93;5.95;;;;;;;4.86;69.46;101027.97;20906632;28;20053;-69
2021/04/24 04:15:45;;;;;;;13.90;6.00;;;;;;;4.83;70.46;101036.66;20796990;23;20041;-72
2021/04/24 04:25:47;;;;;;;17.52;7.07;;;;;;;4.68;71.71;101042.16;20744967;28;20057;-72
2021/04/24 04:35:49;;;;;;;17.83;7.45;;;;;;;4.70;71.95;101049.03;20724969;28;20050;-74
2021/04/24 04:45:50;;;;;;;18.08;7.20;;;;;;;4.73;72.16;101051.56;20740337;28;20477;-73
2021/04/24 04:55:51;;;;;;;15.30;7.25;;;;;;;4.83;72.64;101052.22;20742507;28;20409;-73
2021/04/24 05:05:52;;;;;;;18.52;7.57;;;;;;;4.99;72.20;101051.03;20743013;28;20444;-73
2021/04/24 05:15:53;;;;;;;20.25;7.75;;;;;;;5.13;71.59;101053.31;20738642;28;20081;-74
2021/04/24 05:25:54;;;;;;;20.27;7.68;;;;;;;5.37;71.51;101063.19;20738624;28;20037;-74
2021/04/24 05:35:55;;;;;;;18.70;7.88;;;;;;;5.50;71.22;101055.97;20737644;28;20045;-73
2021/04/24 05:45:56;;;;;;;19.70;8.77;;;;;;;5.69;70.99;101066.78;20738756;28;20046;-73
2021/04/24 05:55:58;;;;;;;16.77;8.48;;;;;;;5.99;70.04;101072.09;20737752;28;20050;-74
2021/04/24 06:05:59;;;;;;;18.73;9.15;;;;;;;6.28;69.49;101071.41;20737612;28;20053;-72
2021/04/24 06:16:00;;;;;;;20.30;9.18;;;;;;;6.38;68.51;101077.22;20739876;28;20062;-72
2021/04/24 06:26:01;;;;;;;18.55;8.73;;;;;;;6.70;66.99;101084.16;20740658;28;20049;-73
2021/04/24 06:36:02;;;;;;;23.92;9.02;;;;;;;7.11;65.47;101075.19;20751825;28;20096;-72
2021/04/24 06:46:03;;;;;;;18.85;8.27;;;;;;;7.50;64.12;101080.94;20708209;28;20103;-73
2021/04/24 06:56:04;;;;;;;21.80;8.38;;;;;;;7.86;62.16;101078.94;20731393;28;20046;-73
2021/04/24 07:06:05;;;;;;;16.38;7.70;;;;;;;8.30;61.67;101074.88;20731767;28;20121;-74
2021/04/24 07:16:10;;;;;;;15.52;7.15;;;;;;;8.55;59.63;101071.38;20727686;28;20042;-74
2021/04/24 07:26:11;;;;;;;16.03;7.20;;;;;;;8.79;58.70;101074.84;20739516;28;20057;-73
2021/04/24 07:36:13;;;;;;;15.82;6.93;;;;;;;9.06;57.66;101067.78;20697310;28;20042;-74
2021/04/24 07:46:14;;;;;;;16.20;7.53;;;;;;;9.51;57.19;101057.34;20722897;28;20481;-74
2021/04/24 07:56:15;;;;;;;20.15;8.30;;;;;;;9.88;55.71;101059.34;20717371;28;20421;-74
2021/04/24 08:06:15;;;;;;;15.52;7.18;;;;;;;10.16;52.84;101052.06;20718561;28;20038;-74
2021/04/24 08:16:17;;;;;;;15.73;6.57;;;;;;;10.63;51.86;101050.03;20719709;28;20482;-71
2021/04/24 08:26:18;;;;;;;15.90;6.95;;;;;;;11.01;49.33;101050.94;20720453;28;20046;-72
2021/04/24 08:36:19;;;;;;;18.40;7.18;;;;;;;11.36;49.10;101041.44;20714434;28;20045;-71
2021/04/24 08:46:21;;;;;;;15.73;7.13;;;;;;;11.53;48.47;101038.00;20717522;28;20112;-72
2021/04/24 08:56:24;;;;;;;13.20;6.90;;;;;;;12.18;47.90;101036.59;20731846;28;20053;-72
2021/04/24 09:06:25;;;;;;;14.32;6.95;;;;;;;12.80;45.21;101030.66;20720842;28;20456;-71
2021/04/24 09:16:37;;;;;;;16.95;7.07;;;;;;;13.04;44.99;101029.38;20738815;28;20046;-72
2021/04/24 09:26:46;;;;;;;14.65;7.18;;;;;;;13.26;44.66;101005.41;20731351;28;20054;-72
2021/04/24 09:36:54;;;;;;;17.63;7.47;;;;;;;13.57;42.73;100991.38;20725780;28;20068;-71
2021/04/24 09:46:58;;;;;;;13.73;7.28;;;;;;;14.10;42.07;100991.75;20709374;28;20467;-71
2021/04/24 09:57:11;;;;;;;13.65;7.38;;;;;;;14.37;40.62;100978.75;20693208;28;20271;-71
2021/04/24 10:07:15;;;;;;;17.23;7.40;;;;;;;14.57;41.22;100969.63;20735671;28;20153;-73
2021/04/24 10:17:19;;;;;;;16.13;7.05;;;;;;;15.27;39.88;100959.88;20755298;28;20046;-72
2021/04/24 10:27:24;;;;;;;19.50;7.73;;;;;;;15.50;39.60;100955.75;20752504;28;20054;-72
2021/04/24 10:37:25;;;;;;;14.40;8.20;;;;;;;15.41;37.72;100950.13;20751431;28;20041;-71
2021/04/24 10:47:38;;;;;;;16.58;8.25;;;;;;;15.69;37.89;100932.53;20751099;28;20563;-71
2021/04/24 10:57:52;;;;;;;15.90;7.50;;;;;;;15.96;36.22;100927.16;20751949;28;20085;-72
2021/04/24 11:08:07;;;;;;;15.30;6.95;;;;;;;15.67;33.35;100915.94;20732577;28;20379;-72
2021/04/24 11:18:12;;;;;;;13.73;7.03;;;;;;;16.18;34.27;100901.81;20744623;28;20100;-72
2021/04/24 11:28:13;;;;;;;17.77;7.27;;;;;;;16.41;33.11;100901.97;20744828;28;20046;-72
2021/04/24 11:38:14;;;;;;;15.30;6.90;;;;;;;16.56;32.45;100885.88;20747669;28;20096;-71
2021/04/24 11:48:35;;;;;;;18.02;8.10;;;;;;;16.52;31.92;100873.00;20747772;28;20050;-72
2021/04/24 11:58:42;;;;;;;19.20;8.35;;;;;;;16.89;31.97;100866.78;20746553;28;20409;-72
2021/04/24 12:08:43;;;;;;;15.25;7.57;;;;;;;17.00;29.88;100863.38;20744295;28;20092;-72
2021/04/24 12:18:44;;;;;;;14.43;7.15;;;;;;;17.41;30.48;100839.97;20730893;28;20566;-73
2021/04/24 12:28:45;;;;;;;16.60;8.18;;;;;;;17.29;29.96;100826.81;20742854;28;20077;-72
2021/04/24 12:38:46;;;;;;;16.48;7.43;;;;;;;17.52;29.65;100824.09;20738702;28;20045;-71
2021/04/24 12:48:49;;;;;;;15.02;7.00;;;;;;;17.55;28.81;100817.75;20721748;28;20124;-71
2021/04/24 12:58:54;;;;;;;15.18;7.18;;;;;;;17.56;29.00;100802.69;20741051;28;20494;-71
2021/04/24 13:09:01;;;;;;;13.47;7.77;;;;;;;17.89;29.23;100790.34;20739630;28;20057;-72
2021/04/24 13:19:03;;;;;;;16.83;8.50;;;;;;;17.94;27.68;100777.59;20726365;28;20560;-70
2021/04/24 13:29:24;;;;;;;18.63;8.55;;;;;;;17.65;27.50;100772.91;20738789;28;20054;-72
2021/04/24 13:39:26;;;;;;;16.58;8.57;;;;;;;17.81;27.92;100758.34;20738082;28;20088;-71
2021/04/24 13:49:28;;;;;;;16.73;8.27;;;;;;;17.71;28.40;100745.94;20721085;28;20108;-73
2021/04/24 13:59:32;;;;;;;19.27;8.70;;;;;;;17.84;29.81;100734.25;20739611;28;20104;-70
2021/04/24 14:09:33;;;;;;;17.48;9.25;;;;;;;18.08;28.65;100733.28;20738373;28;20560;-70
2021/04/24 14:19:36;;;;;;;18.60;8.63;;;;;;;18.23;28.15;100708.22;20737788;28;20127;-70
2021/04/24 14:29:38;;;;;;;15.90;8.05;;;;;;;18.24;28.48;100704.56;20738784;28;20073;-71
2021/04/24 14:39:40;;;;;;;16.33;8.95;;;;;;;18.26;28.64;100695.53;20732749;28;20046;-71
2021/04/24 14:49:42;;;;;;;14.75;8.25;;;;;;;18.10;28.89;100707.50;20746277;28;20498;-70
2021/04/24 14:59:42;;;;;;;18.27;8.70;;;;;;;18.24;29.00;100688.66;20750966;28;20049;-70
2021/04/24 15:09:43;;;;;;;16.15;8.43;;;;;;;18.35;28.56;100692.13;20751555;28;20057;-71
2021/04/24 15:19:44;;;;;;;17.35;8.18;;;;;;;18.24;28.08;100684.22;20752293;28;20046;-71
2021/04/24 15:29:46;;;;;;;17.77;7.97;;;;;;;18.21;28.42;100679.16;20751419;28;20096;-72
2021/04/24 15:39:53;;;;;;;14.23;7.63;;;;;;;18.22;28.29;100672.91;20751183;28;20084;-72
2021/04/24 15:49:55;;;;;;;15.35;8.07;;;;;;;18.18;27.08;100678.59;20753930;28;20054;-71
2021/04/24 15:59:56;;;;;;;13.25;6.45;;;;;;;17.89;26.72;100665.88;20721308;28;20054;-72
2021/04/24 16:09:57;;;;;;;12.55;6.40;;;;;;;18.06;26.70;100668.97;20730465;28;20126;-72
2021/04/24 16:19:58;;;;;;;11.98;6.85;;;;;;;17.75;26.40;100660.84;20746793;28;20050;-71
2021/04/24 16:29:59;;;;;;;10.43;5.10;;;;;;;17.91;26.78;100663.97;20723516;28;20060;-72
2021/04/24 16:40:02;;;;;;;10.35;5.50;;;;;;;17.81;26.27;100670.97;20739746;28;20100;-72
2021/04/24 16:50:04;;;;;;;13.27;6.22;;;;;;;17.57;25.85;100677.34;20721800;28;20046;-72
2021/04/24 17:00:07;;;;;;;14.93;6.57;;;;;;;17.43;25.69;100671.31;20734764;28;20046;-72
2021/04/24 17:10:10;;;;;;;15.68;6.45;;;;;;;17.22;25.84;100666.84;20714967;28;20050;-72
2021/04/24 17:20:11;;;;;;;10.57;5.22;;;;;;;17.03;25.51;100662.13;20696076;28;20235;-73
2021/04/24 17:30:14;;;;;;;12.95;6.68;;;;;;;16.76;26.77;100665.06;20692430;28;20072;-72
2021/04/24 17:40:15;;;;;;;16.45;8.32;;;;;;;16.37;29.18;100660.09;20693737;28;20506;-72
2021/04/24 17:50:17;;;;;;;15.90;8.25;;;;;;;16.01;30.61;100677.69;20699300;28;20485;-72
2021/04/24 18:00:22;;;;;;;14.82;7.60;;;;;;;15.66;31.91;100682.00;20724962;28;20133;-72
2021/04/24 18:10:25;;;;;;;18.33;7.70;;;;;;;15.20;33.42;100694.88;20728031;28;20046;-72
2021/04/24 18:20:26;;;;;;;17.75;6.93;;;;;;;14.78;34.94;100701.28;20737948;28;20462;-72
2021/04/24 18:30:27;;;;;;;14.52;6.93;;;;;;;14.41;35.71;100714.25;20750608;28;20050;-71
2021/04/24 18:40:28;;;;;;;13.27;5.72;;;;;;;14.05;36.90;100708.66;20751260;28;20080;-71
2021/04/24 18:50:30;;;;;;;21.17;5.93;;;;;;;13.85;37.85;100725.72;20759620;28;20045;-72
2021/04/24 19:00:32;;;;;;;14.90;6.05;;;;;;;13.57;38.65;100723.09;20741903;28;20114;-71
2021/04/24 19:10:34;;;;;;;15.50;5.38;;;;;;;13.28;39.80;100712.56;20731713;28;20045;-71
2021/04/24 19:20:35;;;;;;;12.70;5.32;;;;;;;12.97;40.97;100728.44;20732863;28;20464;-72
2021/04/24 19:30:37;;;;;;;11.35;4.78;;;;;;;12.69;41.54;100747.59;20741845;28;20057;-72
2021/04/24 19:40:38;;;;;;;10.73;4.60;;;;;;;12.44;42.51;100729.75;20718785;28;20485;-72
2021/04/24 19:50:39;;;;;;;10.07;4.45;;;;;;;12.18;43.69;100740.03;20724224;28;20068;-72
2021/04/24 20:00:40;;;;;;;9.35;4.25;;;;;;;11.91;44.58;100737.13;20731229;28;20060;-72
2021/04/24 20:10:42;;;;;;;9.55;4.70;;;;;;;11.76;44.88;100738.81;20715957;28;20112;-72
2021/04/24 20:20:43;;;;;;;7.95;3.47;;;;;;;11.65;44.98;100754.22;20713855;28;20093;-72
2021/04/24 20:30:44;;;;;;;11.20;3.88;;;;;;;11.47;45.04;100755.22;20719884;28;20054;-72
2021/04/24 20:40:45;;;;;;;11.13;4.45;;;;;;;11.32;46.11;100769.13;20741724;28;20046;-72
2021/04/24 20:50:46;;;;;;;9.85;4.25;;;;;;;11.07;46.92;100780.81;20723973;28;20104;-72
2021/04/24 21:00:47;;;;;;;12.73;5.22;;;;;;;10.86;48.13;100779.28;20741280;28;20050;-73
2021/04/24 21:10:50;;;;;;;9.07;4.20;;;;;;;10.56;48.83;100775.53;20738493;28;20080;-72
2021/04/24 21:20:52;;;;;;;14.20;4.10;;;;;;;10.40;49.42;100782.41;20717382;28;20480;-72
2021/04/24 21:30:53;;;;;;;9.73;4.28;;;;;;;10.08;50.72;100773.41;20738552;28;20116;-72
2021/04/24 21:40:54;;;;;;;9.80;4.35;;;;;;;9.80;50.98;100773.84;20817254;23;20610;-72
2021/04/24 21:50:55;;;;;;;10.60;4.38;;;;;;;9.48;51.37;100771.78;20818966;28;20054;-72
2021/04/24 22:01:01;;;;;;;9.82;3.80;;;;;;;9.27;51.00;100784.88;20817828;28;20056;-72
2021/04/24 22:11:02;;;;;;;11.18;4.07;;;;;;;9.14;50.89;100799.38;20786792;28;20507;-72
2021/04/24 22:21:04;;;;;;;9.82;4.65;;;;;;;9.04;51.04;100805.88;20819701;28;20041;-71
2021/04/24 22:31:05;;;;;;;10.75;4.30;;;;;;;8.89;51.94;100816.94;20816606;28;20048;-72
2021/04/24 22:41:06;;;;;;;9.90;4.80;;;;;;;8.67;52.96;100823.94;20815664;28;20053;-72
2021/04/24 22:51:07;;;;;;;10.02;4.80;;;;;;;8.62;53.88;100828.50;20815630;28;20050;-72
2021/04/24 23:01:08;;;;;;;12.98;4.57;;;;;;;8.46;54.48;100836.91;20815337;28;20115;-72
2021/04/24 23:11:10;;;;;;;10.50;4.55;;;;;;;8.31;55.69;100842.72;20804850;28;20073;-72
2021/04/24 23:21:11;;;;;;;9.73;4.22;;;;;;;8.21;56.46;100833.50;20818966;28;20059;-72
2021/04/24 23:31:12;;;;;;;11.13;4.60;;;;;;;8.10;57.44;100848.69;20827974;28;20513;-73
2021/04/24 23:41:13;;;;;;;11.57;5.20;;;;;;;8.04;58.62;100848.91;20828589;28;20107;-72
2021/04/24 23:51:14;;;;;;;10.25;4.80;;;;;;;7.92;59.99;100849.38;20810958;28;20053;-72
